createdAt,value
2023-02-28T00:00:32.319Z,69.56
2023-02-28T00:02:59.842Z,69.43
2023-02-28T00:05:28.389Z,69.56
2023-02-28T00:07:56.161Z,69.16
2023-02-28T00:10:25.234Z,69.10
2023-02-28T00:12:52.555Z,69.15
2023-02-28T00:15:20.230Z,69.08
2023-02-28T00:17:47.337Z,69.43
2023-02-28T00:20:14.623Z,69.56
2023-02-28T00:22:43.115Z,69.67
2023-02-28T00:25:11.112Z,70.00
2023-02-28T00:27:40.342Z,70.12
2023-02-28T00:30:08.297Z,69.94
2023-02-28T00:32:35.713Z,69.77
2023-02-28T00:35:02.909Z,69.26
2023-02-28T00:37:29.862Z,70.01
2023-02-28T00:39:56.894Z,69.97
2023-02-28T00:42:24.333Z,70.19
2023-02-28T00:44:51.226Z,69.81
2023-02-28T00:47:18.178Z,69.94
2023-02-28T00:49:45.120Z,69.89
2023-02-28T00:52:11.957Z,69.43
2023-02-28T00:54:38.843Z,69.73
2023-02-28T00:57:06.147Z,69.55
2023-02-28T00:59:33.151Z,69.61
2023-02-28T01:02:00.015Z,70.10
2023-02-28T01:04:27.113Z,69.57
2023-02-28T01:06:53.947Z,69.63
2023-02-28T01:09:20.768Z,69.45
2023-02-28T01:11:47.749Z,69.39
2023-02-28T01:14:16.714Z,70.09
2023-02-28T01:16:43.738Z,69.63
2023-02-28T01:19:10.720Z,70.06
2023-02-28T01:21:38.894Z,70.16
2023-02-28T01:24:06.707Z,69.93
2023-02-28T01:26:33.753Z,69.98
2023-02-28T01:29:00.623Z,69.66
2023-02-28T01:31:27.785Z,69.84
2023-02-28T01:33:55.883Z,69.83
2023-02-28T01:36:24.210Z,70.06
2023-02-28T01:38:51.204Z,69.45
2023-02-28T01:41:25.583Z,69.90
2023-02-28T01:43:55.930Z,69.61
2023-02-28T01:46:22.944Z,70.39
2023-02-28T01:48:56.213Z,69.98
2023-02-28T01:51:27.910Z,70.08
2023-02-28T01:54:00.928Z,70.24
2023-02-28T01:56:30.808Z,69.47
2023-02-28T01:58:58.081Z,70.11
2023-02-28T02:01:27.891Z,70.19
2023-02-28T02:03:56.767Z,69.89
2023-02-28T02:06:35.589Z,70.26
2023-02-28T02:09:03.693Z,70.40
2023-02-28T02:11:31.419Z,69.45
2023-02-28T02:14:10.561Z,70.46
2023-02-28T02:16:38.578Z,70.41
2023-02-28T02:19:05.387Z,69.91
2023-02-28T02:21:50.968Z,70.02
2023-02-28T02:24:20.815Z,69.44
2023-02-28T02:27:04.563Z,69.54
2023-02-28T02:29:42.629Z,70.18
2023-02-28T02:32:40.263Z,69.66
2023-02-28T02:35:23.762Z,69.43
2023-02-28T02:37:56.743Z,69.92
2023-02-28T02:40:26.753Z,69.82
2023-02-28T02:43:12.253Z,69.54
2023-02-28T02:45:48.200Z,70.38
2023-02-28T02:48:19.126Z,70.25
2023-02-28T02:50:56.614Z,69.43
2023-02-28T02:53:28.444Z,70.29
2023-02-28T02:55:56.624Z,69.76
2023-02-28T02:58:35.648Z,69.47
2023-02-28T03:01:03.686Z,69.67
2023-02-28T03:03:32.820Z,69.97
2023-02-28T03:06:01.287Z,70.24
2023-02-28T03:08:29.262Z,69.77
2023-02-28T03:11:03.906Z,70.24
2023-02-28T03:13:49.094Z,70.14
2023-02-28T03:16:22.683Z,69.40
2023-02-28T03:18:49.661Z,69.94
2023-02-28T03:21:46.052Z,69.44
2023-02-28T03:24:33.689Z,69.67
2023-02-28T03:27:22.619Z,69.86
2023-02-28T03:29:57.887Z,70.17
2023-02-28T03:32:27.796Z,69.56
2023-02-28T03:34:59.920Z,69.45
2023-02-28T03:37:28.498Z,69.36
2023-02-28T03:40:00.619Z,70.28
2023-02-28T03:42:30.868Z,69.45
2023-02-28T03:45:03.970Z,70.03
2023-02-28T03:47:35.022Z,70.28
2023-02-28T03:50:08.953Z,69.81
2023-02-28T03:52:40.254Z,70.09
2023-02-28T03:55:10.871Z,69.79
2023-02-28T03:57:44.597Z,69.59
2023-02-28T04:00:11.761Z,70.23
2023-02-28T04:02:41.944Z,69.55
2023-02-28T04:05:09.962Z,69.68
2023-02-28T04:07:37.036Z,69.55
2023-02-28T04:10:07.646Z,70.52
2023-02-28T04:12:34.628Z,70.15
2023-02-28T04:15:01.826Z,69.99
2023-02-28T04:17:29.749Z,70.50
2023-02-28T04:19:58.565Z,70.22
2023-02-28T04:22:47.791Z,70.31
2023-02-28T04:25:14.984Z,70.55
2023-02-28T04:27:42.582Z,70.26
2023-02-28T04:30:10.299Z,69.68
2023-02-28T04:32:37.629Z,69.57
2023-02-28T04:35:04.991Z,69.65
2023-02-28T04:37:36.317Z,69.64
2023-02-28T04:40:04.476Z,69.54
2023-02-28T04:42:36.756Z,70.42
2023-02-28T04:45:06.951Z,69.50
2023-02-28T04:47:39.926Z,70.06
2023-02-28T04:50:10.573Z,70.02
2023-02-28T04:52:38.821Z,70.21
2023-02-28T04:55:12.805Z,69.74
2023-02-28T04:57:46.601Z,69.82
2023-02-28T05:00:16.533Z,69.98
2023-02-28T05:02:43.952Z,70.15
2023-02-28T05:05:11.094Z,69.95
2023-02-28T05:07:38.281Z,69.77
2023-02-28T05:10:06.529Z,69.44
2023-02-28T05:12:33.790Z,69.75
2023-02-28T05:15:02.335Z,69.95
2023-02-28T05:17:30.494Z,69.50
2023-02-28T05:20:09.806Z,69.59
2023-02-28T05:22:42.128Z,69.48
2023-02-28T05:25:12.577Z,69.23
2023-02-28T05:27:39.953Z,69.19
2023-02-28T05:30:07.712Z,69.04
2023-02-28T05:32:34.831Z,69.73
2023-02-28T05:35:01.988Z,69.26
2023-02-28T05:37:30.083Z,69.11
2023-02-28T05:39:57.140Z,69.29
2023-02-28T05:42:24.203Z,68.80
2023-02-28T05:44:51.448Z,69.08
2023-02-28T05:47:18.582Z,69.06
2023-02-28T05:49:45.755Z,69.24
2023-02-28T05:52:12.892Z,69.31
2023-02-28T05:54:39.920Z,68.88
2023-02-28T05:57:15.499Z,69.06
2023-02-28T05:59:49.829Z,68.93
2023-02-28T06:02:17.714Z,68.96
2023-02-28T06:04:45.136Z,68.94
2023-02-28T06:07:12.482Z,68.81
2023-02-28T06:09:39.253Z,68.43
2023-02-28T06:12:08.166Z,68.46
2023-02-28T06:14:35.520Z,68.79
2023-02-28T06:17:03.815Z,68.87
2023-02-28T06:19:31.635Z,68.54
2023-02-28T06:21:59.563Z,68.51
2023-02-28T06:24:29.184Z,68.41
2023-02-28T06:26:56.229Z,68.45
2023-02-28T06:29:23.251Z,67.75
2023-02-28T06:31:53.781Z,68.08
2023-02-28T06:34:21.252Z,68.13
2023-02-28T06:36:48.492Z,67.54
2023-02-28T06:39:15.652Z,67.29
2023-02-28T06:41:54.269Z,67.44
2023-02-28T06:44:22.141Z,67.64
2023-02-28T06:46:49.272Z,67.70
2023-02-28T06:49:16.638Z,67.42
2023-02-28T06:51:47.459Z,67.85
2023-02-28T06:54:14.642Z,66.96
2023-02-28T06:56:41.492Z,65.94
2023-02-28T06:59:08.383Z,65.61
2023-02-28T07:02:10.788Z,66.24
2023-02-28T07:04:38.077Z,64.91
2023-02-28T07:07:05.151Z,65.05
2023-02-28T07:09:32.234Z,65.95
2023-02-28T07:15:59.743Z,66.66
2023-02-28T07:18:27.107Z,66.54
2023-02-28T07:20:54.428Z,65.05
2023-02-28T07:23:21.814Z,65.41
2023-02-28T07:25:49.146Z,66.59
2023-02-28T07:28:16.206Z,66.34
2023-02-28T07:30:43.354Z,65.96
2023-02-28T07:33:11.305Z,66.59
2023-02-28T07:35:38.379Z,65.49
2023-02-28T07:38:05.306Z,66.39
2023-02-28T07:40:32.352Z,66.61
2023-02-28T07:42:59.999Z,66.26
2023-02-28T07:45:27.156Z,66.05
2023-02-28T07:47:54.176Z,65.51
2023-02-28T07:50:21.092Z,66.05
2023-02-28T07:52:47.890Z,65.94
2023-02-28T07:55:15.156Z,65.54
2023-02-28T07:57:41.972Z,66.19
2023-02-28T08:00:15.757Z,65.38
2023-02-28T08:02:42.664Z,65.31
2023-02-28T08:05:09.597Z,65.28
2023-02-28T08:07:36.459Z,65.61
2023-02-28T08:10:03.968Z,65.55
2023-02-28T08:12:30.728Z,65.99
2023-02-28T08:14:57.521Z,66.22
2023-02-28T08:17:24.405Z,66.00
2023-02-28T08:19:51.352Z,65.38
2023-02-28T08:22:18.213Z,65.89
2023-02-28T08:24:45.097Z,66.18
2023-02-28T08:27:11.974Z,65.64
2023-02-28T08:29:39.330Z,65.35
2023-02-28T08:32:09.244Z,65.86
2023-02-28T08:34:41.642Z,65.97
2023-02-28T08:37:08.566Z,66.00
2023-02-28T08:39:39.231Z,66.40
2023-02-28T08:42:16.710Z,66.27
2023-02-28T08:44:43.824Z,66.04
2023-02-28T08:47:10.804Z,66.03
2023-02-28T08:49:50.802Z,66.11
2023-02-28T08:52:17.841Z,66.51
2023-02-28T08:54:44.630Z,66.44
2023-02-28T08:57:11.539Z,66.33
2023-02-28T08:59:38.430Z,66.04
2023-02-28T09:02:09.734Z,65.73
2023-02-28T09:04:36.710Z,66.02
2023-02-28T09:07:03.572Z,66.18
2023-02-28T09:09:31.370Z,66.17
2023-02-28T09:11:58.742Z,66.35
2023-02-28T09:14:25.749Z,65.79
2023-02-28T09:16:52.744Z,66.15
2023-02-28T09:19:19.787Z,66.12
2023-02-28T09:21:46.832Z,66.00
2023-02-28T09:24:16.375Z,66.07
2023-02-28T09:26:56.332Z,66.06
2023-02-28T09:29:30.670Z,65.42
2023-02-28T09:32:01.132Z,65.17
2023-02-28T09:34:28.726Z,65.46
2023-02-28T09:36:56.205Z,65.38
2023-02-28T09:39:23.563Z,65.47
2023-02-28T09:41:52.905Z,65.58
2023-02-28T09:44:41.573Z,65.50
2023-02-28T09:47:26.887Z,65.69
2023-02-28T09:49:53.945Z,65.84
2023-02-28T09:52:24.789Z,65.39
2023-02-28T09:54:51.659Z,65.51
2023-02-28T09:57:18.408Z,65.30
2023-02-28T09:59:45.287Z,65.20
2023-02-28T10:02:30.897Z,65.48
2023-02-28T10:05:04.147Z,65.61
2023-02-28T10:07:44.189Z,65.63
2023-02-28T10:10:23.222Z,65.72
2023-02-28T10:12:55.160Z,65.52
2023-02-28T10:15:23.814Z,65.66
2023-02-28T10:18:06.222Z,65.74
2023-02-28T10:20:36.865Z,65.71
2023-02-28T10:23:12.749Z,65.62
2023-02-28T10:25:40.399Z,65.52
2023-02-28T10:28:10.269Z,65.53
2023-02-28T10:30:48.605Z,65.95
2023-02-28T10:33:19.429Z,65.02
2023-02-28T10:35:46.303Z,65.63
2023-02-28T10:38:22.087Z,65.47
2023-02-28T10:40:49.444Z,65.54
2023-02-28T10:43:16.525Z,65.58
2023-02-28T10:46:00.805Z,65.56
2023-02-28T10:48:33.254Z,65.58
2023-02-28T10:51:00.777Z,66.06
2023-02-28T10:53:57.563Z,66.08
2023-02-28T10:56:29.866Z,66.33
2023-02-28T10:58:57.482Z,66.23
2023-02-28T11:01:28.553Z,65.85
2023-02-28T11:03:55.496Z,66.12
2023-02-28T11:06:28.949Z,66.13
2023-02-28T11:08:57.049Z,66.06
2023-02-28T11:11:26.462Z,66.18
2023-02-28T11:13:55.712Z,66.21
2023-02-28T11:16:23.184Z,66.30
2023-02-28T11:18:51.812Z,66.04
2023-02-28T11:21:28.361Z,66.05
2023-02-28T11:24:03.362Z,66.22
2023-02-28T11:26:46.150Z,66.49
2023-02-28T11:29:32.141Z,66.54
2023-02-28T11:32:19.313Z,66.60
2023-02-28T11:34:48.202Z,66.48
2023-02-28T11:37:20.493Z,66.40
2023-02-28T11:39:47.786Z,66.40
2023-02-28T11:42:23.994Z,66.80
2023-02-28T11:44:57.116Z,66.96
2023-02-28T11:47:47.291Z,66.70
2023-02-28T11:50:24.516Z,66.58
2023-02-28T11:53:00.497Z,66.65
2023-02-28T11:55:44.062Z,66.64
2023-02-28T11:58:11.042Z,66.73
2023-02-28T12:00:38.136Z,66.75
2023-02-28T12:03:08.303Z,66.50
2023-02-28T12:05:51.042Z,66.84
2023-02-28T12:08:28.364Z,66.68
2023-02-28T12:11:01.736Z,67.21
2023-02-28T12:13:31.778Z,67.07
2023-02-28T12:16:11.264Z,66.98
2023-02-28T12:18:57.009Z,67.21
2023-02-28T12:21:42.837Z,67.07
2023-02-28T12:24:20.181Z,67.39
2023-02-28T12:26:48.636Z,67.48
2023-02-28T12:29:22.869Z,68.05
2023-02-28T12:32:03.329Z,67.71
2023-02-28T12:34:34.546Z,67.53
2023-02-28T12:37:04.999Z,67.70
2023-02-28T12:39:48.295Z,67.95
2023-02-28T12:42:35.222Z,68.21
2023-02-28T12:45:14.755Z,67.71
2023-02-28T12:47:47.291Z,68.38
2023-02-28T12:50:14.790Z,68.36
2023-02-28T12:52:46.333Z,68.41
2023-02-28T12:55:16.663Z,68.31
2023-02-28T12:57:54.262Z,68.40
2023-02-28T13:00:24.244Z,68.81
2023-02-28T13:02:57.357Z,69.44
2023-02-28T13:05:54.830Z,69.45
2023-02-28T13:16:49.098Z,68.93
2023-02-28T13:19:31.152Z,68.82
2023-02-28T13:22:17.008Z,68.71
2023-02-28T13:25:12.538Z,68.94
2023-02-28T13:27:42.406Z,69.05
2023-02-28T13:30:37.281Z,69.44
2023-02-28T13:36:20.835Z,69.05
2023-02-28T13:39:03.934Z,69.47
2023-02-28T13:41:32.751Z,69.58
2023-02-28T13:44:03.512Z,69.34
2023-02-28T13:46:31.299Z,69.52
2023-02-28T13:49:18.777Z,69.32
2023-02-28T13:51:51.901Z,69.86
2023-02-28T13:54:41.061Z,69.47
2023-02-28T13:57:15.204Z,69.64
2023-02-28T14:00:09.581Z,69.53
2023-02-28T14:02:43.695Z,69.63
2023-02-28T14:08:09.701Z,69.78
2023-02-28T14:10:57.533Z,69.93
2023-02-28T14:14:38.219Z,69.93
2023-02-28T14:17:08.688Z,69.51
2023-02-28T14:19:38.242Z,69.96
2023-02-28T14:22:28.120Z,70.09
2023-02-28T14:25:15.979Z,70.00
2023-02-28T14:27:51.610Z,69.79
2023-02-28T14:30:18.929Z,69.46
2023-02-28T14:32:52.261Z,69.74
2023-02-28T14:35:39.711Z,69.54
2023-02-28T14:38:10.553Z,69.61
2023-02-28T14:40:40.040Z,69.80
2023-02-28T14:43:19.838Z,70.09
2023-02-28T14:46:07.715Z,70.25
2023-02-28T14:48:36.176Z,69.89
2023-02-28T14:51:06.726Z,70.09
2023-02-28T14:53:39.711Z,70.11
2023-02-28T14:56:09.533Z,70.18
2023-02-28T14:58:36.773Z,70.10
2023-02-28T15:01:05.377Z,70.52
2023-02-28T15:03:43.127Z,70.79
2023-02-28T15:09:09.132Z,70.65
2023-02-28T15:11:42.167Z,70.57
2023-02-28T15:14:23.101Z,70.44
2023-02-28T15:16:54.543Z,70.33
2023-02-28T15:19:33.754Z,70.27
2023-02-28T15:22:15.296Z,70.52
2023-02-28T15:24:49.552Z,70.36
2023-02-28T15:27:18.029Z,70.38
2023-02-28T15:30:27.211Z,70.51
2023-02-28T15:33:15.129Z,70.46
2023-02-28T15:35:42.632Z,70.66
2023-02-28T15:38:38.827Z,70.55
2023-02-28T15:41:25.027Z,70.69
2023-02-28T15:44:12.008Z,70.51
2023-02-28T15:46:39.364Z,70.71
2023-02-28T15:49:06.568Z,70.61
2023-02-28T15:51:59.693Z,70.74
2023-02-28T15:54:32.120Z,70.59
2023-02-28T15:57:09.967Z,70.70
2023-02-28T15:59:38.521Z,70.81
2023-02-28T16:02:19.296Z,70.88
2023-02-28T16:05:02.540Z,71.12
2023-02-28T16:07:38.533Z,70.88
2023-02-28T16:10:28.213Z,70.94
2023-02-28T16:13:16.347Z,70.95
2023-02-28T16:15:44.528Z,70.86
2023-02-28T16:18:13.293Z,70.90
2023-02-28T16:20:43.215Z,71.20
2023-02-28T16:23:16.754Z,71.06
2023-02-28T16:25:45.003Z,70.95
2023-02-28T16:28:34.065Z,71.22
2023-02-28T16:31:04.006Z,71.09
2023-02-28T16:33:34.616Z,70.97
2023-02-28T16:36:02.242Z,71.12
2023-02-28T16:38:29.351Z,71.02
2023-02-28T16:43:51.550Z,70.86
2023-02-28T16:46:19.459Z,70.97
2023-02-28T16:48:52.753Z,71.07
2023-02-28T16:51:19.979Z,70.73
2023-02-28T16:53:47.397Z,71.17
2023-02-28T16:56:16.728Z,71.22
2023-02-28T16:58:44.166Z,70.99
2023-02-28T17:01:11.323Z,71.11
2023-02-28T17:03:38.675Z,71.03
2023-02-28T17:06:05.896Z,71.04
2023-02-28T17:08:33.422Z,71.42
2023-02-28T17:11:01.100Z,71.16
2023-02-28T17:13:28.122Z,70.83
2023-02-28T17:15:55.721Z,71.01
2023-02-28T17:18:23.545Z,70.81
2023-02-28T17:20:51.129Z,71.13
2023-02-28T17:23:18.608Z,71.09
2023-02-28T17:25:57.923Z,70.99
2023-02-28T17:28:29.867Z,71.32
2023-02-28T17:30:58.468Z,71.20
2023-02-28T17:33:26.204Z,71.51
2023-02-28T17:35:54.254Z,72.07
2023-02-28T17:38:24.765Z,72.04
2023-02-28T17:40:52.298Z,72.50
2023-02-28T17:43:19.411Z,72.43
2023-02-28T17:45:47.648Z,72.68
2023-02-28T17:48:14.663Z,72.35
2023-02-28T17:50:41.820Z,72.21
2023-02-28T17:53:08.861Z,72.28
2023-02-28T17:55:36.441Z,72.13
2023-02-28T17:58:04.379Z,72.16
2023-02-28T18:00:36.748Z,72.04
2023-02-28T18:03:04.149Z,71.97
2023-02-28T18:05:32.008Z,72.18
2023-02-28T18:07:59.638Z,71.90
2023-02-28T18:10:28.486Z,72.02
2023-02-28T18:12:55.427Z,72.10
2023-02-28T18:15:22.914Z,72.31
2023-02-28T18:17:50.408Z,72.35
2023-02-28T18:20:17.866Z,71.52
2023-02-28T18:22:45.127Z,71.13
2023-02-28T18:25:15.247Z,70.94
2023-02-28T18:27:54.328Z,71.05
2023-02-28T18:30:21.887Z,71.60
2023-02-28T18:32:48.946Z,71.56
2023-02-28T18:38:26.896Z,72.55
2023-02-28T18:40:59.411Z,72.59
2023-02-28T18:43:41.666Z,72.14
2023-02-28T18:46:17.318Z,70.41
2023-02-28T18:48:47.496Z,70.37
2023-02-28T18:51:26.424Z,70.62
2023-02-28T19:00:02.178Z,71.59
2023-02-28T19:02:38.627Z,71.50
2023-02-28T19:05:06.237Z,71.48
2023-02-28T19:07:37.284Z,71.59
2023-02-28T19:10:05.945Z,71.36
2023-02-28T19:12:38.096Z,71.84
2023-02-28T19:15:07.949Z,71.56
2023-02-28T19:18:02.361Z,71.62
2023-02-28T19:20:29.919Z,71.01
2023-02-28T19:23:02.068Z,71.01
2023-02-28T19:25:30.402Z,71.02
2023-02-28T19:28:02.025Z,71.32
2023-02-28T19:30:31.637Z,71.36
2023-02-28T19:33:02.044Z,71.44
2023-02-28T19:35:30.468Z,70.94
2023-02-28T19:37:58.921Z,70.03
2023-02-28T19:40:47.495Z,68.85
2023-02-28T19:43:25.241Z,68.82
2023-02-28T19:45:52.676Z,69.99
2023-02-28T19:51:38.634Z,68.39
2023-02-28T19:54:09.616Z,67.79
2023-02-28T19:56:39.044Z,67.26
2023-02-28T19:59:16.813Z,69.22
2023-02-28T20:01:49.165Z,69.85
2023-02-28T20:04:18.175Z,69.49
2023-02-28T20:06:45.487Z,69.21
2023-02-28T20:09:26.895Z,68.99
2023-02-28T20:11:59.557Z,69.56
2023-02-28T20:14:26.826Z,69.73
2023-02-28T20:16:57.154Z,69.79
2023-02-28T20:19:25.231Z,68.58
2023-02-28T20:21:53.022Z,69.16
2023-02-28T20:24:26.071Z,69.45
2023-02-28T20:26:53.732Z,67.04
2023-02-28T20:29:21.167Z,67.77
2023-02-28T20:31:48.370Z,68.21
2023-02-28T20:34:18.227Z,65.74
2023-02-28T20:36:46.088Z,59.02
2023-02-28T20:39:14.991Z,58.58
2023-02-28T20:41:43.254Z,58.38
2023-02-28T20:46:55.892Z,61.83
2023-02-28T20:49:27.537Z,62.37
2023-02-28T20:55:06.326Z,63.45
2023-02-28T21:03:05.026Z,60.31
2023-02-28T21:05:35.484Z,62.98
2023-02-28T21:08:05.936Z,58.96
2023-02-28T21:10:39.805Z,61.68
2023-02-28T21:13:06.835Z,56.59
2023-02-28T21:15:37.528Z,57.58
2023-02-28T21:18:11.100Z,58.30
2023-02-28T21:20:38.315Z,59.13
2023-02-28T21:23:05.462Z,57.98
2023-02-28T21:25:33.227Z,59.67
2023-02-28T21:28:00.668Z,57.68
2023-02-28T21:33:15.084Z,60.05
2023-02-28T21:35:42.151Z,61.62
2023-02-28T21:38:09.126Z,61.82
2023-02-28T21:40:36.042Z,59.95
2023-02-28T21:43:03.052Z,62.85
2023-02-28T21:45:30.002Z,64.39
2023-02-28T21:47:56.818Z,64.61
2023-02-28T21:50:23.761Z,64.30
2023-02-28T21:52:50.675Z,64.87
2023-02-28T21:55:17.392Z,64.87
2023-02-28T21:57:44.339Z,65.30
2023-02-28T22:00:12.166Z,65.28
2023-02-28T22:02:39.137Z,65.38
2023-02-28T22:05:06.460Z,65.23
2023-02-28T22:07:33.343Z,65.39
2023-02-28T22:10:00.193Z,65.18
2023-02-28T22:12:29.726Z,65.33
2023-02-28T22:14:56.676Z,66.25
2023-02-28T22:17:23.553Z,66.12
2023-02-28T22:19:50.366Z,66.60
2023-02-28T22:22:17.165Z,66.13
2023-02-28T22:24:43.923Z,66.75
2023-02-28T22:27:10.914Z,66.11
2023-02-28T22:29:37.833Z,66.25
2023-02-28T22:32:04.864Z,65.36
2023-02-28T22:34:31.670Z,65.84
2023-02-28T22:36:58.622Z,65.66
2023-02-28T22:39:25.896Z,66.12
2023-02-28T22:41:54.641Z,66.22
2023-02-28T22:44:23.052Z,65.92
2023-02-28T22:46:53.920Z,65.64
2023-02-28T22:49:21.005Z,66.10
2023-02-28T22:51:47.853Z,66.40
2023-02-28T22:54:14.646Z,66.07
2023-02-28T22:56:41.559Z,65.91
2023-02-28T22:59:08.436Z,65.33
2023-02-28T23:01:37.322Z,65.61
2023-02-28T23:04:04.478Z,65.48
2023-02-28T23:06:33.280Z,65.84
2023-02-28T23:09:02.349Z,65.87
2023-02-28T23:11:34.144Z,64.44
2023-02-28T23:14:01.090Z,65.16
2023-02-28T23:16:28.013Z,66.24
2023-02-28T23:18:55.234Z,65.46
2023-02-28T23:21:22.776Z,66.04
2023-02-28T23:23:49.542Z,65.31
2023-02-28T23:26:16.331Z,65.73
2023-02-28T23:28:43.086Z,66.18
2023-02-28T23:31:10.325Z,65.89
2023-02-28T23:33:37.216Z,66.21
2023-02-28T23:36:11.472Z,65.84
2023-02-28T23:38:39.445Z,65.82
2023-02-28T23:41:07.070Z,65.63
2023-02-28T23:43:33.916Z,65.80
2023-02-28T23:46:00.930Z,65.66
2023-02-28T23:48:27.947Z,66.03
2023-02-28T23:50:58.336Z,65.77
2023-02-28T23:53:25.098Z,65.50
2023-02-28T23:55:51.924Z,66.08
2023-02-28T23:58:18.778Z,66.05
